sensor_id;sensor_type;location;lat;lon;timestamp;pressure;altitude;pressure_sealevel;temperature;humidity
28935;BME280;16044;52.726;-2.108;2023-05-21T00:02:16;101525.09;;;10.28;74.23
28935;BME280;16044;52.726;-2.108;2023-05-21T00:04:44;101529.66;;;10.27;73.67
28935;BME280;16044;52.726;-2.108;2023-05-21T00:07:11;101522.00;;;10.23;73.80
28935;BME280;16044;52.726;-2.108;2023-05-21T00:09:40;101522.72;;;10.15;75.15
28935;BME280;16044;52.726;-2.108;2023-05-21T00:12:08;101515.19;;;10.09;75.65
28935;BME280;16044;52.726;-2.108;2023-05-21T00:14:36;101518.50;;;10.03;76.26
28935;BME280;16044;52.726;-2.108;2023-05-21T00:17:03;101523.50;;;9.98;76.41
28935;BME280;16044;52.726;-2.108;2023-05-21T00:19:30;101518.38;;;9.94;76.63
28935;BME280;16044;52.726;-2.108;2023-05-21T00:21:59;101518.66;;;9.91;76.64
28935;BME280;16044;52.726;-2.108;2023-05-21T00:24:30;101525.25;;;9.89;76.48
28935;BME280;16044;52.726;-2.108;2023-05-21T00:26:57;101523.53;;;9.88;76.80
28935;BME280;16044;52.726;-2.108;2023-05-21T00:29:24;101522.97;;;9.84;76.96
28935;BME280;16044;52.726;-2.108;2023-05-21T00:31:53;101519.00;;;9.79;77.33
28935;BME280;16044;52.726;-2.108;2023-05-21T00:34:20;101516.72;;;9.74;77.37
28935;BME280;16044;52.726;-2.108;2023-05-21T00:36:47;101510.75;;;9.70;77.03
28935;BME280;16044;52.726;-2.108;2023-05-21T00:39:14;101519.28;;;9.66;77.56
28935;BME280;16044;52.726;-2.108;2023-05-21T00:41:41;101522.31;;;9.63;77.79
28935;BME280;16044;52.726;-2.108;2023-05-21T00:44:12;101527.00;;;9.61;78.08
28935;BME280;16044;52.726;-2.108;2023-05-21T00:46:39;101522.72;;;9.58;78.07
28935;BME280;16044;52.726;-2.108;2023-05-21T00:49:07;101523.88;;;9.55;78.30
28935;BME280;16044;52.726;-2.108;2023-05-21T00:51:34;101540.13;;;9.55;77.69
28935;BME280;16044;52.726;-2.108;2023-05-21T00:54:01;101550.94;;;9.55;77.32
28935;BME280;16044;52.726;-2.108;2023-05-21T00:56:28;101541.56;;;9.50;77.98
28935;BME280;16044;52.726;-2.108;2023-05-21T00:58:55;101537.56;;;9.44;78.41
28935;BME280;16044;52.726;-2.108;2023-05-21T01:01:23;101532.28;;;9.43;78.15
28935;BME280;16044;52.726;-2.108;2023-05-21T01:04:00;101516.50;;;9.38;78.38
28935;BME280;16044;52.726;-2.108;2023-05-21T01:06:27;101518.50;;;9.36;78.15
28935;BME280;16044;52.726;-2.108;2023-05-21T01:08:55;101511.09;;;9.38;77.49
28935;BME280;16044;52.726;-2.108;2023-05-21T01:11:36;101511.81;;;9.30;78.17
28935;BME280;16044;52.726;-2.108;2023-05-21T01:14:05;101506.81;;;9.26;78.89
28935;BME280;16044;52.726;-2.108;2023-05-21T01:16:37;101507.13;;;9.23;78.98
28935;BME280;16044;52.726;-2.108;2023-05-21T01:19:07;101511.06;;;9.18;79.36
28935;BME280;16044;52.726;-2.108;2023-05-21T01:21:40;101505.97;;;9.15;79.67
28935;BME280;16044;52.726;-2.108;2023-05-21T01:24:10;101509.53;;;9.16;79.42
28935;BME280;16044;52.726;-2.108;2023-05-21T01:26:37;101500.56;;;9.15;78.67
28935;BME280;16044;52.726;-2.108;2023-05-21T01:29:07;101507.97;;;9.13;78.68
28935;BME280;16044;52.726;-2.108;2023-05-21T01:34:46;101500.84;;;9.03;79.23
28935;BME280;16044;52.726;-2.108;2023-05-21T01:37:32;101490.47;;;8.98;79.62
28935;BME280;16044;52.726;-2.108;2023-05-21T01:40:13;101481.06;;;8.92;79.85
28935;BME280;16044;52.726;-2.108;2023-05-21T01:43:05;101479.22;;;8.93;79.30
28935;BME280;16044;52.726;-2.108;2023-05-21T01:45:35;101478.78;;;8.88;79.93
28935;BME280;16044;52.726;-2.108;2023-05-21T01:48:07;101476.38;;;8.85;80.21
28935;BME280;16044;52.726;-2.108;2023-05-21T01:50:36;101482.31;;;8.78;80.58
28935;BME280;16044;52.726;-2.108;2023-05-21T01:53:04;101483.47;;;8.76;80.41
28935;BME280;16044;52.726;-2.108;2023-05-21T01:55:31;101489.13;;;8.73;80.42
28935;BME280;16044;52.726;-2.108;2023-05-21T01:57:59;101491.44;;;8.68;81.11
28935;BME280;16044;52.726;-2.108;2023-05-21T02:00:28;101500.66;;;8.65;81.36
28935;BME280;16044;52.726;-2.108;2023-05-21T02:02:56;101508.03;;;8.63;81.77
28935;BME280;16044;52.726;-2.108;2023-05-21T02:05:24;101500.94;;;8.62;81.46
28935;BME280;16044;52.726;-2.108;2023-05-21T02:07:51;101493.25;;;8.57;82.11
28935;BME280;16044;52.726;-2.108;2023-05-21T02:10:19;101498.78;;;8.56;82.23
28935;BME280;16044;52.726;-2.108;2023-05-21T02:12:46;101492.53;;;8.55;81.80
28935;BME280;16044;52.726;-2.108;2023-05-21T02:15:13;101500.75;;;8.54;81.34
28935;BME280;16044;52.726;-2.108;2023-05-21T02:17:40;101491.38;;;8.48;82.04
28935;BME280;16044;52.726;-2.108;2023-05-21T02:20:08;101495.06;;;8.47;81.97
28935;BME280;16044;52.726;-2.108;2023-05-21T02:22:44;101489.22;;;8.42;82.45
28935;BME280;16044;52.726;-2.108;2023-05-21T02:25:14;101492.31;;;8.37;83.24
28935;BME280;16044;52.726;-2.108;2023-05-21T02:27:43;101496.84;;;8.37;82.76
28935;BME280;16044;52.726;-2.108;2023-05-21T02:30:14;101500.69;;;8.34;82.93
28935;BME280;16044;52.726;-2.108;2023-05-21T02:32:41;101499.97;;;8.32;83.43
28935;BME280;16044;52.726;-2.108;2023-05-21T02:35:10;101494.56;;;8.32;82.73
28935;BME280;16044;52.726;-2.108;2023-05-21T02:37:38;101492.13;;;8.29;83.20
28935;BME280;16044;52.726;-2.108;2023-05-21T02:40:07;101486.31;;;8.24;83.88
28935;BME280;16044;52.726;-2.108;2023-05-21T02:42:36;101478.47;;;8.21;84.03
28935;BME280;16044;52.726;-2.108;2023-05-21T02:45:10;101479.75;;;8.17;84.16
28935;BME280;16044;52.726;-2.108;2023-05-21T02:47:37;101490.94;;;8.12;84.60
28935;BME280;16044;52.726;-2.108;2023-05-21T02:50:06;101490.34;;;8.09;84.67
28935;BME280;16044;52.726;-2.108;2023-05-21T02:52:34;101486.94;;;8.07;83.89
28935;BME280;16044;52.726;-2.108;2023-05-21T02:55:01;101490.63;;;8.06;83.64
28935;BME280;16044;52.726;-2.108;2023-05-21T02:57:28;101488.47;;;7.99;83.83
28935;BME280;16044;52.726;-2.108;2023-05-21T02:59:55;101488.41;;;7.90;84.75
28935;BME280;16044;52.726;-2.108;2023-05-21T03:02:22;101478.75;;;7.87;84.92
28935;BME280;16044;52.726;-2.108;2023-05-21T03:04:49;101482.59;;;7.85;84.70
28935;BME280;16044;52.726;-2.108;2023-05-21T03:07:16;101475.47;;;7.84;84.11
28935;BME280;16044;52.726;-2.108;2023-05-21T03:09:46;101476.59;;;7.81;84.07
28935;BME280;16044;52.726;-2.108;2023-05-21T03:12:13;101468.88;;;7.76;84.25
28935;BME280;16044;52.726;-2.108;2023-05-21T03:14:40;101468.59;;;7.70;84.84
28935;BME280;16044;52.726;-2.108;2023-05-21T03:17:12;101472.56;;;7.66;84.82
28935;BME280;16044;52.726;-2.108;2023-05-21T03:19:43;101469.09;;;7.64;84.52
28935;BME280;16044;52.726;-2.108;2023-05-21T03:22:10;101469.66;;;7.57;85.87
28935;BME280;16044;52.726;-2.108;2023-05-21T03:24:38;101480.72;;;7.54;85.94
28935;BME280;16044;52.726;-2.108;2023-05-21T03:27:05;101479.84;;;7.54;85.72
28935;BME280;16044;52.726;-2.108;2023-05-21T03:29:33;101482.66;;;7.52;86.07
28935;BME280;16044;52.726;-2.108;2023-05-21T03:32:00;101488.06;;;7.52;85.95
28935;BME280;16044;52.726;-2.108;2023-05-21T03:34:28;101480.13;;;7.51;85.89
28935;BME280;16044;52.726;-2.108;2023-05-21T03:36:55;101479.25;;;7.50;85.04
28935;BME280;16044;52.726;-2.108;2023-05-21T03:39:22;101482.34;;;7.46;85.64
28935;BME280;16044;52.726;-2.108;2023-05-21T03:41:50;101476.38;;;7.42;86.36
28935;BME280;16044;52.726;-2.108;2023-05-21T03:44:17;101473.19;;;7.37;86.61
28935;BME280;16044;52.726;-2.108;2023-05-21T03:46:43;101476.06;;;7.35;86.86
28935;BME280;16044;52.726;-2.108;2023-05-21T03:49:12;101460.00;;;7.34;86.28
28935;BME280;16044;52.726;-2.108;2023-05-21T03:51:39;101479.13;;;7.31;86.40
28935;BME280;16044;52.726;-2.108;2023-05-21T03:54:06;101470.31;;;7.29;86.69
28935;BME280;16044;52.726;-2.108;2023-05-21T03:56:33;101462.47;;;7.26;86.82
28935;BME280;16044;52.726;-2.108;2023-05-21T03:59:00;101454.38;;;7.26;86.19
28935;BME280;16044;52.726;-2.108;2023-05-21T04:01:28;101454.66;;;7.22;86.76
28935;BME280;16044;52.726;-2.108;2023-05-21T04:03:55;101447.84;;;7.18;87.57
28935;BME280;16044;52.726;-2.108;2023-05-21T04:06:22;101445.97;;;7.19;87.37
28935;BME280;16044;52.726;-2.108;2023-05-21T04:08:49;101448.81;;;7.17;87.91
28935;BME280;16044;52.726;-2.108;2023-05-21T04:11:16;101458.03;;;7.15;88.00
28935;BME280;16044;52.726;-2.108;2023-05-21T04:13:43;101451.63;;;7.16;87.61
28935;BME280;16044;52.726;-2.108;2023-05-21T04:16:11;101452.47;;;7.16;87.23
28935;BME280;16044;52.726;-2.108;2023-05-21T04:18:40;101447.25;;;7.15;87.72
28935;BME280;16044;52.726;-2.108;2023-05-21T04:21:10;101438.28;;;7.14;88.04
28935;BME280;16044;52.726;-2.108;2023-05-21T04:23:38;101450.91;;;7.14;88.12
28935;BME280;16044;52.726;-2.108;2023-05-21T04:26:05;101461.44;;;7.17;87.80
28935;BME280;16044;52.726;-2.108;2023-05-21T04:28:33;101451.25;;;7.20;87.23
28935;BME280;16044;52.726;-2.108;2023-05-21T04:31:01;101455.94;;;7.18;87.11
28935;BME280;16044;52.726;-2.108;2023-05-21T04:33:28;101458.88;;;7.15;87.54
28935;BME280;16044;52.726;-2.108;2023-05-21T04:35:55;101457.16;;;7.14;87.96
28935;BME280;16044;52.726;-2.108;2023-05-21T04:38:23;101459.84;;;7.14;88.16
28935;BME280;16044;52.726;-2.108;2023-05-21T04:40:51;101465.09;;;7.16;88.36
28935;BME280;16044;52.726;-2.108;2023-05-21T04:43:19;101459.59;;;7.17;88.25
28935;BME280;16044;52.726;-2.108;2023-05-21T04:45:52;101456.66;;;7.20;88.08
28935;BME280;16044;52.726;-2.108;2023-05-21T04:48:21;101459.06;;;7.23;87.42
28935;BME280;16044;52.726;-2.108;2023-05-21T04:50:52;101455.66;;;7.21;88.85
28935;BME280;16044;52.726;-2.108;2023-05-21T04:53:21;101451.69;;;7.26;88.66
28935;BME280;16044;52.726;-2.108;2023-05-21T04:55:48;101453.88;;;7.32;88.43
28935;BME280;16044;52.726;-2.108;2023-05-21T04:58:15;101453.59;;;7.35;88.72
28935;BME280;16044;52.726;-2.108;2023-05-21T05:00:45;101451.13;;;7.43;88.13
28935;BME280;16044;52.726;-2.108;2023-05-21T05:03:13;101457.94;;;7.47;88.74
28935;BME280;16044;52.726;-2.108;2023-05-21T05:05:40;101454.31;;;7.58;88.61
28935;BME280;16044;52.726;-2.108;2023-05-21T05:08:07;101451.59;;;7.79;89.22
28935;BME280;16044;52.726;-2.108;2023-05-21T05:10:34;101450.63;;;8.30;89.29
28935;BME280;16044;52.726;-2.108;2023-05-21T05:13:02;101448.44;;;8.94;87.31
28935;BME280;16044;52.726;-2.108;2023-05-21T05:15:29;101439.00;;;9.56;85.45
28935;BME280;16044;52.726;-2.108;2023-05-21T05:17:56;101440.44;;;10.16;83.04
28935;BME280;16044;52.726;-2.108;2023-05-21T05:20:23;101441.81;;;10.76;81.33
28935;BME280;16044;52.726;-2.108;2023-05-21T05:22:50;101439.59;;;11.33;78.98
28935;BME280;16044;52.726;-2.108;2023-05-21T05:25:17;101437.03;;;11.84;76.79
28935;BME280;16044;52.726;-2.108;2023-05-21T05:27:44;101432.50;;;12.27;74.65
28935;BME280;16044;52.726;-2.108;2023-05-21T05:30:11;101435.13;;;12.61;73.27
28935;BME280;16044;52.726;-2.108;2023-05-21T05:32:39;101435.66;;;12.81;70.36
28935;BME280;16044;52.726;-2.108;2023-05-21T05:35:07;101443.00;;;13.14;68.78
28935;BME280;16044;52.726;-2.108;2023-05-21T05:37:34;101439.28;;;13.39;67.33
28935;BME280;16044;52.726;-2.108;2023-05-21T05:40:02;101437.50;;;13.71;65.91
28935;BME280;16044;52.726;-2.108;2023-05-21T05:42:30;101442.84;;;14.04;64.76
28935;BME280;16044;52.726;-2.108;2023-05-21T05:44:57;101443.22;;;14.40;63.02
28935;BME280;16044;52.726;-2.108;2023-05-21T05:47:24;101453.69;;;14.60;61.23
28935;BME280;16044;52.726;-2.108;2023-05-21T05:49:51;101456.13;;;14.78;60.79
28935;BME280;16044;52.726;-2.108;2023-05-21T05:52:18;101446.75;;;15.04;60.06
28935;BME280;16044;52.726;-2.108;2023-05-21T05:54:45;101442.53;;;15.16;58.77
28935;BME280;16044;52.726;-2.108;2023-05-21T05:57:13;101436.63;;;15.50;57.96
28935;BME280;16044;52.726;-2.108;2023-05-21T05:59:40;101440.44;;;15.79;57.01
28935;BME280;16044;52.726;-2.108;2023-05-21T06:02:07;101446.38;;;16.12;56.50
28935;BME280;16044;52.726;-2.108;2023-05-21T06:04:34;101437.00;;;16.22;55.88
28935;BME280;16044;52.726;-2.108;2023-05-21T06:07:01;101438.97;;;16.43;55.33
28935;BME280;16044;52.726;-2.108;2023-05-21T06:09:28;101440.97;;;16.70;54.97
28935;BME280;16044;52.726;-2.108;2023-05-21T06:11:55;101448.34;;;16.70;54.22
28935;BME280;16044;52.726;-2.108;2023-05-21T06:14:21;101446.91;;;16.74;53.64
28935;BME280;16044;52.726;-2.108;2023-05-21T06:16:48;101451.28;;;16.53;54.12
28935;BME280;16044;52.726;-2.108;2023-05-21T06:19:16;101446.75;;;16.61;54.06
28935;BME280;16044;52.726;-2.108;2023-05-21T06:21:43;101448.59;;;16.75;54.21
28935;BME280;16044;52.726;-2.108;2023-05-21T06:24:10;101444.59;;;16.92;53.25
28935;BME280;16044;52.726;-2.108;2023-05-21T06:26:37;101455.59;;;16.99;53.29
28935;BME280;16044;52.726;-2.108;2023-05-21T06:29:04;101457.25;;;17.15;53.42
28935;BME280;16044;52.726;-2.108;2023-05-21T06:31:31;101456.31;;;17.29;53.32
28935;BME280;16044;52.726;-2.108;2023-05-21T06:33:59;101466.28;;;17.37;53.26
28935;BME280;16044;52.726;-2.108;2023-05-21T06:36:27;101458.41;;;17.27;53.08
28935;BME280;16044;52.726;-2.108;2023-05-21T06:38:55;101455.72;;;17.12;53.31
28935;BME280;16044;52.726;-2.108;2023-05-21T06:41:22;101460.63;;;16.95;53.16
28935;BME280;16044;52.726;-2.108;2023-05-21T06:43:49;101468.78;;;16.74;53.23
28935;BME280;16044;52.726;-2.108;2023-05-21T06:46:17;101462.06;;;16.55;53.52
28935;BME280;16044;52.726;-2.108;2023-05-21T06:48:44;101465.88;;;16.39;54.99
28935;BME280;16044;52.726;-2.108;2023-05-21T06:51:13;101467.81;;;16.60;54.64
28935;BME280;16044;52.726;-2.108;2023-05-21T06:53:41;101470.88;;;16.72;55.33
28935;BME280;16044;52.726;-2.108;2023-05-21T06:56:08;101473.66;;;16.93;54.12
28935;BME280;16044;52.726;-2.108;2023-05-21T06:58:35;101465.19;;;17.10;54.31
28935;BME280;16044;52.726;-2.108;2023-05-21T07:01:02;101458.66;;;17.32;53.58
28935;BME280;16044;52.726;-2.108;2023-05-21T07:03:29;101458.97;;;17.44;52.09
28935;BME280;16044;52.726;-2.108;2023-05-21T07:05:56;101458.22;;;17.57;52.35
28935;BME280;16044;52.726;-2.108;2023-05-21T07:08:23;101460.38;;;17.62;52.42
28935;BME280;16044;52.726;-2.108;2023-05-21T07:10:50;101459.84;;;17.80;51.18
28935;BME280;16044;52.726;-2.108;2023-05-21T07:13:17;101462.41;;;17.81;51.83
28935;BME280;16044;52.726;-2.108;2023-05-21T07:15:44;101464.69;;;17.78;51.08
28935;BME280;16044;52.726;-2.108;2023-05-21T07:18:11;101464.91;;;17.76;50.81
28935;BME280;16044;52.726;-2.108;2023-05-21T07:20:38;101460.16;;;17.85;51.00
28935;BME280;16044;52.726;-2.108;2023-05-21T07:23:05;101460.50;;;17.82;51.06
28935;BME280;16044;52.726;-2.108;2023-05-21T07:25:33;101462.22;;;17.83;50.57
28935;BME280;16044;52.726;-2.108;2023-05-21T07:28:00;101471.13;;;17.91;50.41
28935;BME280;16044;52.726;-2.108;2023-05-21T07:30:27;101470.56;;;17.96;49.73
28935;BME280;16044;52.726;-2.108;2023-05-21T07:32:54;101470.31;;;17.91;48.97
28935;BME280;16044;52.726;-2.108;2023-05-21T07:35:21;101477.78;;;17.82;50.20
28935;BME280;16044;52.726;-2.108;2023-05-21T07:37:48;101472.28;;;17.76;48.71
28935;BME280;16044;52.726;-2.108;2023-05-21T07:40:16;101483.69;;;17.79;49.35
28935;BME280;16044;52.726;-2.108;2023-05-21T07:42:43;101481.53;;;17.74;48.82
28935;BME280;16044;52.726;-2.108;2023-05-21T07:45:10;101480.91;;;17.72;48.00
28935;BME280;16044;52.726;-2.108;2023-05-21T07:47:37;101489.13;;;17.72;49.28
28935;BME280;16044;52.726;-2.108;2023-05-21T07:50:04;101483.69;;;17.79;49.29
28935;BME280;16044;52.726;-2.108;2023-05-21T07:52:32;101485.84;;;17.84;49.41
28935;BME280;16044;52.726;-2.108;2023-05-21T07:55:00;101482.56;;;17.95;49.18
28935;BME280;16044;52.726;-2.108;2023-05-21T07:57:27;101476.75;;;18.11;48.42
28935;BME280;16044;52.726;-2.108;2023-05-21T07:59:54;101476.44;;;18.28;48.36
28935;BME280;16044;52.726;-2.108;2023-05-21T08:02:22;101480.66;;;18.37;47.49
28935;BME280;16044;52.726;-2.108;2023-05-21T08:04:49;101475.25;;;18.50;46.82
28935;BME280;16044;52.726;-2.108;2023-05-21T08:07:18;101478.84;;;18.58;46.96
28935;BME280;16044;52.726;-2.108;2023-05-21T08:09:45;101471.50;;;18.65;46.53
28935;BME280;16044;52.726;-2.108;2023-05-21T08:12:12;101470.47;;;18.66;45.94
28935;BME280;16044;52.726;-2.108;2023-05-21T08:14:41;101470.03;;;18.69;44.84
28935;BME280;16044;52.726;-2.108;2023-05-21T08:17:08;101467.47;;;18.61;44.47
28935;BME280;16044;52.726;-2.108;2023-05-21T08:19:38;101472.09;;;18.54;44.77
28935;BME280;16044;52.726;-2.108;2023-05-21T08:22:05;101477.00;;;18.65;44.21
28935;BME280;16044;52.726;-2.108;2023-05-21T08:24:32;101470.09;;;18.82;44.43
28935;BME280;16044;52.726;-2.108;2023-05-21T08:26:59;101469.69;;;18.85;43.22
28935;BME280;16044;52.726;-2.108;2023-05-21T08:29:26;101467.38;;;18.96;42.49
28935;BME280;16044;52.726;-2.108;2023-05-21T08:31:53;101463.19;;;19.13;42.31
28935;BME280;16044;52.726;-2.108;2023-05-21T08:34:20;101474.16;;;19.06;40.48
28935;BME280;16044;52.726;-2.108;2023-05-21T08:36:47;101458.53;;;19.07;40.62
28935;BME280;16044;52.726;-2.108;2023-05-21T08:39:15;101458.75;;;19.12;40.87
28935;BME280;16044;52.726;-2.108;2023-05-21T08:41:42;101457.28;;;19.23;41.28
28935;BME280;16044;52.726;-2.108;2023-05-21T08:44:19;101453.69;;;19.42;41.46
28935;BME280;16044;52.726;-2.108;2023-05-21T08:46:49;101450.94;;;19.49;40.04
28935;BME280;16044;52.726;-2.108;2023-05-21T08:49:21;101443.94;;;19.46;38.56
28935;BME280;16044;52.726;-2.108;2023-05-21T08:51:53;101445.44;;;19.49;38.00
28935;BME280;16044;52.726;-2.108;2023-05-21T08:54:21;101450.94;;;19.42;38.09
28935;BME280;16044;52.726;-2.108;2023-05-21T08:56:48;101451.34;;;19.46;37.95
28935;BME280;16044;52.726;-2.108;2023-05-21T08:59:16;101447.13;;;19.50;37.58
28935;BME280;16044;52.726;-2.108;2023-05-21T09:01:44;101451.34;;;19.46;36.13
28935;BME280;16044;52.726;-2.108;2023-05-21T09:04:13;101449.25;;;19.55;36.91
28935;BME280;16044;52.726;-2.108;2023-05-21T09:06:47;101443.31;;;19.51;35.89
28935;BME280;16044;52.726;-2.108;2023-05-21T09:09:26;101450.50;;;19.52;36.03
28935;BME280;16044;52.726;-2.108;2023-05-21T09:11:58;101442.03;;;19.34;36.51
28935;BME280;16044;52.726;-2.108;2023-05-21T09:14:25;101439.31;;;19.14;37.35
28935;BME280;16044;52.726;-2.108;2023-05-21T09:16:53;101439.94;;;19.02;37.50
28935;BME280;16044;52.726;-2.108;2023-05-21T09:19:20;101446.69;;;19.00;38.46
28935;BME280;16044;52.726;-2.108;2023-05-21T09:21:50;101450.47;;;18.85;38.73
28935;BME280;16044;52.726;-2.108;2023-05-21T09:24:20;101452.81;;;18.88;38.84
28935;BME280;16044;52.726;-2.108;2023-05-21T09:26:48;101442.88;;;18.94;39.45
28935;BME280;16044;52.726;-2.108;2023-05-21T09:29:15;101443.72;;;19.08;39.48
28935;BME280;16044;52.726;-2.108;2023-05-21T09:31:43;101434.00;;;19.12;39.42
28935;BME280;16044;52.726;-2.108;2023-05-21T09:34:11;101432.13;;;19.06;40.08
28935;BME280;16044;52.726;-2.108;2023-05-21T09:36:39;101440.75;;;19.03;37.74
28935;BME280;16044;52.726;-2.108;2023-05-21T09:39:06;101433.16;;;19.05;37.10
28935;BME280;16044;52.726;-2.108;2023-05-21T09:41:34;101424.91;;;18.98;37.98
28935;BME280;16044;52.726;-2.108;2023-05-21T09:44:03;101430.19;;;19.06;37.79
28935;BME280;16044;52.726;-2.108;2023-05-21T09:46:37;101426.59;;;19.13;37.93
28935;BME280;16044;52.726;-2.108;2023-05-21T09:49:23;101428.50;;;19.12;36.80
28935;BME280;16044;52.726;-2.108;2023-05-21T09:51:58;101415.59;;;19.13;37.14
28935;BME280;16044;52.726;-2.108;2023-05-21T09:54:30;101426.41;;;19.14;37.41
28935;BME280;16044;52.726;-2.108;2023-05-21T09:56:59;101411.59;;;19.08;37.22
28935;BME280;16044;52.726;-2.108;2023-05-21T09:59:38;101419.22;;;19.13;37.75
28935;BME280;16044;52.726;-2.108;2023-05-21T10:02:32;101409.50;;;19.17;37.77
28935;BME280;16044;52.726;-2.108;2023-05-21T10:05:07;101411.19;;;19.25;38.13
28935;BME280;16044;52.726;-2.108;2023-05-21T10:07:34;101403.78;;;19.25;37.68
28935;BME280;16044;52.726;-2.108;2023-05-21T10:10:03;101398.69;;;19.22;38.19
28935;BME280;16044;52.726;-2.108;2023-05-21T10:12:31;101403.97;;;19.37;38.78
28935;BME280;16044;52.726;-2.108;2023-05-21T10:15:04;101402.91;;;19.45;37.21
28935;BME280;16044;52.726;-2.108;2023-05-21T10:17:35;101407.34;;;19.59;37.29
28935;BME280;16044;52.726;-2.108;2023-05-21T10:20:05;101402.69;;;19.66;37.41
28935;BME280;16044;52.726;-2.108;2023-05-21T10:22:34;101403.56;;;19.74;36.65
28935;BME280;16044;52.726;-2.108;2023-05-21T10:25:01;101398.44;;;19.84;35.83
28935;BME280;16044;52.726;-2.108;2023-05-21T10:27:31;101399.69;;;19.95;36.20
28935;BME280;16044;52.726;-2.108;2023-05-21T10:29:59;101394.34;;;20.00;35.92
28935;BME280;16044;52.726;-2.108;2023-05-21T10:32:26;101394.75;;;20.03;35.27
28935;BME280;16044;52.726;-2.108;2023-05-21T10:34:53;101403.69;;;19.92;35.04
28935;BME280;16044;52.726;-2.108;2023-05-21T10:37:25;101395.44;;;19.92;35.18
28935;BME280;16044;52.726;-2.108;2023-05-21T10:39:56;101391.84;;;19.98;35.88
28935;BME280;16044;52.726;-2.108;2023-05-21T10:45:21;101390.75;;;19.99;36.95
28935;BME280;16044;52.726;-2.108;2023-05-21T10:57:36;101380.84;;;19.98;35.13
28935;BME280;16044;52.726;-2.108;2023-05-21T10:59:46;101377.66;;;19.95;31.79
28935;BME280;16044;52.726;-2.108;2023-05-21T11:02:14;101389.72;;;19.94;32.25
28935;BME280;16044;52.726;-2.108;2023-05-21T11:04:43;101371.13;;;19.89;32.23
28935;BME280;16044;52.726;-2.108;2023-05-21T11:07:11;101368.13;;;19.97;31.80
28935;BME280;16044;52.726;-2.108;2023-05-21T11:09:38;101370.25;;;19.95;31.22
28935;BME280;16044;52.726;-2.108;2023-05-21T11:12:06;101370.03;;;19.97;31.13
28935;BME280;16044;52.726;-2.108;2023-05-21T11:14:37;101370.03;;;19.97;30.39
28935;BME280;16044;52.726;-2.108;2023-05-21T11:19:37;101364.72;;;20.02;31.52
28935;BME280;16044;52.726;-2.108;2023-05-21T11:22:25;101365.78;;;20.01;32.36
28935;BME280;16044;52.726;-2.108;2023-05-21T11:24:54;101367.88;;;20.05;32.15
28935;BME280;16044;52.726;-2.108;2023-05-21T11:27:37;101366.16;;;20.11;32.72
28935;BME280;16044;52.726;-2.108;2023-05-21T11:30:07;101364.50;;;20.03;29.67
28935;BME280;16044;52.726;-2.108;2023-05-21T11:32:39;101359.78;;;20.17;31.20
28935;BME280;16044;52.726;-2.108;2023-05-21T11:35:27;101368.69;;;20.13;31.53
28935;BME280;16044;52.726;-2.108;2023-05-21T11:37:54;101359.81;;;20.11;30.85
28935;BME280;16044;52.726;-2.108;2023-05-21T11:40:24;101355.34;;;20.16;30.13
28935;BME280;16044;52.726;-2.108;2023-05-21T11:42:54;101352.97;;;20.27;30.59
28935;BME280;16044;52.726;-2.108;2023-05-21T11:45:26;101348.72;;;20.24;30.18
28935;BME280;16044;52.726;-2.108;2023-05-21T11:47:54;101349.19;;;20.21;29.80
28935;BME280;16044;52.726;-2.108;2023-05-21T11:50:22;101353.59;;;20.22;30.40
28935;BME280;16044;52.726;-2.108;2023-05-21T11:52:49;101343.00;;;20.25;31.07
28935;BME280;16044;52.726;-2.108;2023-05-21T11:55:21;101347.69;;;20.25;30.63
28935;BME280;16044;52.726;-2.108;2023-05-21T11:57:52;101344.47;;;20.28;29.68
28935;BME280;16044;52.726;-2.108;2023-05-21T12:00:19;101343.41;;;20.29;28.24
28935;BME280;16044;52.726;-2.108;2023-05-21T12:02:50;101346.97;;;20.36;27.93
28935;BME280;16044;52.726;-2.108;2023-05-21T12:05:17;101350.97;;;20.40;28.45
28935;BME280;16044;52.726;-2.108;2023-05-21T12:07:46;101347.31;;;20.47;29.13
28935;BME280;16044;52.726;-2.108;2023-05-21T12:10:14;101340.56;;;20.49;28.28
28935;BME280;16044;52.726;-2.108;2023-05-21T12:12:42;101348.13;;;20.54;28.79
28935;BME280;16044;52.726;-2.108;2023-05-21T12:15:22;101348.16;;;20.47;28.48
28935;BME280;16044;52.726;-2.108;2023-05-21T12:17:50;101346.00;;;20.56;26.80
28935;BME280;16044;52.726;-2.108;2023-05-21T12:20:18;101350.28;;;20.52;27.25
28935;BME280;16044;52.726;-2.108;2023-05-21T12:22:47;101342.44;;;20.49;26.59
28935;BME280;16044;52.726;-2.108;2023-05-21T12:25:19;101338.81;;;20.55;26.98
28935;BME280;16044;52.726;-2.108;2023-05-21T12:27:47;101321.81;;;20.58;27.40
28935;BME280;16044;52.726;-2.108;2023-05-21T12:30:18;101325.84;;;20.62;28.17
28935;BME280;16044;52.726;-2.108;2023-05-21T12:32:45;101331.19;;;20.57;26.87
28935;BME280;16044;52.726;-2.108;2023-05-21T12:35:20;101325.66;;;20.57;27.41
28935;BME280;16044;52.726;-2.108;2023-05-21T12:37:49;101318.47;;;20.62;27.63
28935;BME280;16044;52.726;-2.108;2023-05-21T12:40:16;101310.75;;;20.71;28.17
28935;BME280;16044;52.726;-2.108;2023-05-21T12:42:44;101330.03;;;20.71;26.97
28935;BME280;16044;52.726;-2.108;2023-05-21T12:45:11;101318.16;;;20.71;26.94
28935;BME280;16044;52.726;-2.108;2023-05-21T12:47:38;101318.75;;;20.79;28.41
28935;BME280;16044;52.726;-2.108;2023-05-21T12:50:09;101319.97;;;20.83;28.51
28935;BME280;16044;52.726;-2.108;2023-05-21T12:52:39;101324.38;;;20.91;28.41
28935;BME280;16044;52.726;-2.108;2023-05-21T12:55:12;101314.78;;;20.94;28.45
28935;BME280;16044;52.726;-2.108;2023-05-21T12:57:40;101318.13;;;21.02;28.70
28935;BME280;16044;52.726;-2.108;2023-05-21T13:00:09;101323.56;;;21.09;28.96
28935;BME280;16044;52.726;-2.108;2023-05-21T13:05:08;101324.78;;;21.13;29.00
28935;BME280;16044;52.726;-2.108;2023-05-21T13:07:38;101312.88;;;21.19;29.58
28935;BME280;16044;52.726;-2.108;2023-05-21T13:10:05;101314.53;;;21.20;28.87
28935;BME280;16044;52.726;-2.108;2023-05-21T13:12:33;101319.63;;;21.23;29.79